createdAt,value
2019-05-17T00:56:29.019Z,81.80
2019-05-17T00:59:00.017Z,81.60
2019-05-17T01:01:31.295Z,81.60
2019-05-17T01:04:02.378Z,81.50
2019-05-17T01:06:33.576Z,81.50
2019-05-17T01:09:04.775Z,81.20
2019-05-17T01:11:36.576Z,81.20
2019-05-17T01:14:08.938Z,81.20
2019-05-17T01:16:38.968Z,81.20
2019-05-17T01:19:10.333Z,81.40
2019-05-17T01:21:41.437Z,81.20
2019-05-17T01:24:12.256Z,81.10
2019-05-17T01:26:43.151Z,80.80
2019-05-17T01:29:17.309Z,80.70
2019-05-17T01:31:49.093Z,80.70
2019-05-17T01:34:19.928Z,80.40
2019-05-17T01:36:50.966Z,80.20
2019-05-17T01:39:22.159Z,80.10
2019-05-17T01:41:53.544Z,79.80
2019-05-17T01:44:27.100Z,79.80
2019-05-17T01:46:56.877Z,79.50
2019-05-17T01:49:27.971Z,79.30
2019-05-17T01:51:58.876Z,79.10
2019-05-17T01:54:30.101Z,79.10
2019-05-17T01:57:01.267Z,79.00
2019-05-17T01:59:32.721Z,78.90
2019-05-17T02:02:07.023Z,78.70
2019-05-17T02:04:38.504Z,78.70
2019-05-17T02:07:09.716Z,78.50
2019-05-17T02:09:41.838Z,78.50
2019-05-17T02:12:12.035Z,78.30
2019-05-17T02:14:43.013Z,78.00
2019-05-17T02:17:17.414Z,77.80
2019-05-17T02:19:48.711Z,77.60
2019-05-17T02:22:19.614Z,77.30
2019-05-17T02:24:50.690Z,77.10
2019-05-17T02:27:24.272Z,77.00
2019-05-17T02:29:54.226Z,76.80
2019-05-17T02:32:25.554Z,76.70
2019-05-17T02:34:56.484Z,76.50
2019-05-17T02:37:27.381Z,76.30
2019-05-17T02:40:04.642Z,76.10
2019-05-17T02:42:32.997Z,75.80
2019-05-17T02:45:03.375Z,75.70
2019-05-17T02:47:34.567Z,75.40
2019-05-17T02:50:06.850Z,75.30
2019-05-17T02:52:37.975Z,74.90
2019-05-17T02:55:12.472Z,75.00
2019-05-17T02:57:43.258Z,75.00
2019-05-17T03:00:14.300Z,74.60
2019-05-17T03:02:45.250Z,74.80
2019-05-17T03:05:16.044Z,75.50
2019-05-17T03:07:46.949Z,74.30
2019-05-17T03:10:27.527Z,73.90
2019-05-17T03:12:53.030Z,73.80
2019-05-17T03:15:24.193Z,73.60
2019-05-17T03:17:55.149Z,73.70
2019-05-17T03:20:26.152Z,73.60
2019-05-17T03:22:57.087Z,73.50
2019-05-17T03:25:28.122Z,74.10
2019-05-17T03:27:59.183Z,74.00
2019-05-17T03:30:35.515Z,73.70
2019-05-17T03:33:07.211Z,73.50
2019-05-17T03:35:37.510Z,73.40
2019-05-17T03:38:07.781Z,73.00
2019-05-17T03:41:03.283Z,72.70
2019-05-17T03:43:13.847Z,73.20
2019-05-17T03:45:44.283Z,72.20
2019-05-17T03:48:15.338Z,72.20
2019-05-17T03:50:46.185Z,71.90
2019-05-17T03:53:17.057Z,71.60
2019-05-17T03:55:48.470Z,72.20
2019-05-17T03:58:23.280Z,72.30
2019-05-17T04:00:53.384Z,71.80
2019-05-17T04:03:23.587Z,71.70
2019-05-17T04:05:54.889Z,71.10
2019-05-17T04:08:25.953Z,71.50
2019-05-17T04:10:57.005Z,71.50
2019-05-17T04:13:28.246Z,70.70
2019-05-17T04:15:59.150Z,70.50
2019-05-17T04:18:30.198Z,70.20
2019-05-17T04:21:03.349Z,69.90
2019-05-17T04:23:34.266Z,69.90
2019-05-17T04:26:05.277Z,69.80
2019-05-17T04:28:36.153Z,69.80
2019-05-17T04:31:07.026Z,69.60
2019-05-17T04:33:38.442Z,69.30
2019-05-17T04:36:12.907Z,69.30
2019-05-17T04:38:43.586Z,69.10
2019-05-17T04:41:14.357Z,67.90
2019-05-17T04:43:45.825Z,68.70
2019-05-17T04:46:16.874Z,67.50
2019-05-17T04:48:48.076Z,67.90
2019-05-17T04:51:18.921Z,66.90
2019-05-17T04:53:52.735Z,66.20
2019-05-17T04:56:22.707Z,66.80
2019-05-17T04:58:54.520Z,67.00
2019-05-17T05:01:25.878Z,66.60
2019-05-17T05:03:56.790Z,67.50
2019-05-17T05:06:27.616Z,66.80
2019-05-17T05:08:58.689Z,66.80
2019-05-17T05:11:32.612Z,65.90
2019-05-17T05:14:02.833Z,65.80
2019-05-17T05:16:34.719Z,65.40
2019-05-17T05:19:05.714Z,64.50
2019-05-17T05:21:36.421Z,65.20
2019-05-17T05:24:07.348Z,64.80
2019-05-17T05:26:38.992Z,64.10
2019-05-17T05:29:12.487Z,63.90
2019-05-17T05:31:42.763Z,64.00
2019-05-17T05:34:13.928Z,63.90
2019-05-17T05:36:44.975Z,63.80
2019-05-17T05:39:15.903Z,63.40
2019-05-17T05:41:47.064Z,63.20
2019-05-17T05:44:18.196Z,63.70
2019-05-17T05:46:51.429Z,62.80
2019-05-17T05:49:21.786Z,63.10
2019-05-17T05:51:52.751Z,63.20
2019-05-17T05:54:23.827Z,63.40
2019-05-17T05:56:54.930Z,63.40
2019-05-17T05:59:25.858Z,63.50
2019-05-17T06:01:56.794Z,63.30
2019-05-17T06:04:27.899Z,62.90
2019-05-17T06:06:58.953Z,62.60
2019-05-17T06:09:31.795Z,62.40
2019-05-17T06:12:02.594Z,62.00
2019-05-17T06:14:33.712Z,61.90
2019-05-17T06:17:04.828Z,61.60
2019-05-17T06:19:35.844Z,61.40
2019-05-17T06:22:06.796Z,62.00
2019-05-17T06:24:37.933Z,61.80
2019-05-17T06:27:08.981Z,61.10
2019-05-17T06:29:41.504Z,60.40
2019-05-17T06:32:12.383Z,59.60
2019-05-17T06:34:43.563Z,59.40
2019-05-17T06:37:16.574Z,60.30
2019-05-17T06:39:47.040Z,60.80
2019-05-17T06:42:18.485Z,60.60
2019-05-17T06:44:52.250Z,60.10
2019-05-17T06:47:22.676Z,59.00
2019-05-17T06:49:53.847Z,59.70
2019-05-17T06:52:24.853Z,59.80
2019-05-17T06:54:56.037Z,59.60
2019-05-17T06:57:26.916Z,59.50
2019-05-17T06:59:59.332Z,59.10
2019-05-17T07:02:30.891Z,59.40
2019-05-17T07:05:03.168Z,59.90
2019-05-17T07:07:34.271Z,59.40
2019-05-17T07:10:05.227Z,59.90
2019-05-17T07:12:36.058Z,59.10
2019-05-17T07:15:10.594Z,59.50
2019-05-17T07:17:40.770Z,59.60
2019-05-17T07:20:12.222Z,59.80
2019-05-17T07:22:50.718Z,59.70
2019-05-17T07:25:21.695Z,59.90
2019-05-17T07:27:52.674Z,60.40
2019-05-17T07:30:23.837Z,60.40
2019-05-17T07:32:55.418Z,60.90
2019-05-17T07:35:26.263Z,61.00
2019-05-17T07:37:59.378Z,61.20
2019-05-17T07:40:30.340Z,61.40
2019-05-17T07:43:10.441Z,62.40
2019-05-17T07:45:33.914Z,61.20
2019-05-17T07:50:59.403Z,61.40
2019-05-17T07:53:30.816Z,61.90
2019-05-17T07:56:02.315Z,61.70
2019-05-17T07:58:33.402Z,61.90
2019-05-17T08:01:04.588Z,62.10
2019-05-17T08:03:35.517Z,62.20
2019-05-17T08:06:06.475Z,62.10
2019-05-17T08:08:40.689Z,61.90
2019-05-17T08:11:10.626Z,62.40
2019-05-17T08:13:41.070Z,61.80
2019-05-17T08:16:11.973Z,60.80
2019-05-17T08:18:42.908Z,61.50
2019-05-17T08:21:14.185Z,61.60
2019-05-17T08:23:45.275Z,61.50
2019-05-17T08:26:16.169Z,61.50
2019-05-17T08:28:49.746Z,62.50
2019-05-17T08:31:20.194Z,61.60
2019-05-17T08:33:51.423Z,61.50
2019-05-17T08:36:22.398Z,61.40
2019-05-17T08:38:53.425Z,61.30
2019-05-17T08:41:24.479Z,61.00
2019-05-17T08:43:55.476Z,61.00
2019-05-17T08:46:26.537Z,60.80
2019-05-17T08:49:00.260Z,61.30
2019-05-17T08:51:31.005Z,61.40
2019-05-17T08:54:01.824Z,61.20
2019-05-17T08:56:33.086Z,61.50
2019-05-17T08:59:04.079Z,61.00
2019-05-17T09:01:38.451Z,60.90
2019-05-17T09:04:09.308Z,60.70
2019-05-17T09:06:40.126Z,60.90
2019-05-17T09:09:11.117Z,60.30
2019-05-17T09:11:42.228Z,60.30
2019-05-17T09:14:13.275Z,60.60
2019-05-17T09:16:47.334Z,60.00
2019-05-17T09:19:19.454Z,61.20
2019-05-17T09:21:50.450Z,60.40
2019-05-17T09:24:21.755Z,60.10
2019-05-17T09:26:52.954Z,60.20
2019-05-17T09:29:23.945Z,60.00
2019-05-17T09:31:54.756Z,59.60
2019-05-17T09:34:25.866Z,59.90
2019-05-17T09:36:57.002Z,60.00
2019-05-17T09:39:29.478Z,60.10
2019-05-17T09:42:00.669Z,59.70
2019-05-17T09:44:32.795Z,59.70
2019-05-17T09:47:04.839Z,59.40
2019-05-17T09:49:34.718Z,59.60
2019-05-17T09:52:06.034Z,58.80
2019-05-17T09:54:42.363Z,59.30
2019-05-17T09:57:09.890Z,59.50
2019-05-17T09:59:42.092Z,59.50
2019-05-17T10:02:13.225Z,59.30
2019-05-17T10:04:44.000Z,59.50
2019-05-17T10:07:15.173Z,59.30
2019-05-17T10:09:46.231Z,59.40
2019-05-17T10:12:17.322Z,59.30
2019-05-17T10:14:49.812Z,59.60
2019-05-17T10:17:21.255Z,59.60
2019-05-17T10:19:52.513Z,59.30
2019-05-17T10:22:23.449Z,59.30
2019-05-17T10:24:54.344Z,59.40
2019-05-17T10:27:30.256Z,59.40
2019-05-17T10:30:01.158Z,59.50
2019-05-17T10:32:31.960Z,59.20
2019-05-17T10:35:02.790Z,59.30
2019-05-17T10:37:34.150Z,58.90
2019-05-17T10:40:05.698Z,59.10
2019-05-17T10:42:36.608Z,59.60
2019-05-17T10:45:10.895Z,59.10
2019-05-17T10:47:42.850Z,58.90
2019-05-17T10:50:12.943Z,59.10
2019-05-17T10:52:44.055Z,58.40
2019-05-17T10:55:15.378Z,59.00
2019-05-17T10:57:46.382Z,59.10
2019-05-17T11:00:19.535Z,59.00
2019-05-17T11:02:50.295Z,59.00
2019-05-17T11:05:21.411Z,59.10
2019-05-17T11:07:52.656Z,59.20
2019-05-17T11:10:23.737Z,59.20
2019-05-17T11:12:54.751Z,59.30
2019-05-17T11:15:25.895Z,59.40
2019-05-17T11:17:56.980Z,59.50
2019-05-17T11:20:28.022Z,59.50
2019-05-17T11:22:59.018Z,59.50
2019-05-17T11:25:30.349Z,59.60
2019-05-17T11:28:01.324Z,59.70
2019-05-17T11:30:32.224Z,59.70
2019-05-17T11:33:03.468Z,59.70
2019-05-17T11:35:34.430Z,59.80
2019-05-17T11:38:05.599Z,59.70
2019-05-17T11:40:36.723Z,59.70
2019-05-17T11:43:07.723Z,60.00
2019-05-17T11:45:39.204Z,60.10
2019-05-17T11:48:10.128Z,60.00
2019-05-17T11:50:41.210Z,60.00
2019-05-17T11:53:12.332Z,60.20
2019-05-17T11:55:43.196Z,60.30
2019-05-17T11:58:14.563Z,60.40
2019-05-17T12:00:45.434Z,60.40
2019-05-17T12:03:16.725Z,60.50
2019-05-17T12:05:47.759Z,60.80
2019-05-17T12:08:18.782Z,61.10
2019-05-17T12:10:49.687Z,61.10
2019-05-17T12:13:21.031Z,61.50
2019-05-17T12:15:52.051Z,61.60
2019-05-17T12:18:23.263Z,61.90
2019-05-17T12:20:54.043Z,61.90
2019-05-17T12:23:24.775Z,62.00
2019-05-17T12:25:55.676Z,62.00
2019-05-17T12:28:26.678Z,62.10
2019-05-17T12:30:57.897Z,62.30
2019-05-17T12:33:29.173Z,62.20
2019-05-17T12:36:02.729Z,62.20
2019-05-17T12:38:33.986Z,62.20
2019-05-17T12:41:05.107Z,62.40
2019-05-17T12:43:36.160Z,62.50
2019-05-17T12:46:07.519Z,62.40
2019-05-17T12:48:38.558Z,62.50
2019-05-17T12:51:09.391Z,62.60
2019-05-17T12:53:40.269Z,62.50
2019-05-17T12:56:11.127Z,62.50
2019-05-17T12:58:41.908Z,62.50
2019-05-17T13:01:12.926Z,62.60
2019-05-17T13:03:44.029Z,62.50
2019-05-17T13:06:15.071Z,62.50
2019-05-17T13:08:46.376Z,62.40
2019-05-17T13:11:17.269Z,62.50
2019-05-17T13:13:48.295Z,62.50
2019-05-17T13:16:19.455Z,62.50
2019-05-17T13:18:50.524Z,62.30
2019-05-17T13:21:21.476Z,63.30
2019-05-17T13:23:52.838Z,62.20
2019-05-17T13:26:24.005Z,62.20
2019-05-17T13:28:55.266Z,63.00
2019-05-17T13:31:26.384Z,62.20
2019-05-17T13:33:57.351Z,62.10
2019-05-17T13:36:28.243Z,62.40
2019-05-17T13:38:59.155Z,62.30
2019-05-17T13:41:30.078Z,62.40
2019-05-17T13:44:00.985Z,62.40
2019-05-17T13:46:33.551Z,62.40
2019-05-17T13:49:04.382Z,62.50
2019-05-17T13:51:35.200Z,62.50
2019-05-17T13:54:06.944Z,62.40
2019-05-17T13:56:37.900Z,62.50
2019-05-17T13:59:08.904Z,62.60
2019-05-17T14:01:44.117Z,62.70
2019-05-17T14:04:15.124Z,62.60
2019-05-17T14:06:46.439Z,62.70
2019-05-17T14:09:17.640Z,62.70
2019-05-17T14:11:49.012Z,62.70
2019-05-17T14:14:19.874Z,62.70
2019-05-17T14:16:50.628Z,62.70
2019-05-17T14:19:21.734Z,62.80
2019-05-17T14:21:54.649Z,62.90
2019-05-17T14:24:27.793Z,62.90
2019-05-17T14:27:00.078Z,63.00
2019-05-17T14:29:32.788Z,63.10
2019-05-17T14:32:04.491Z,63.20
2019-05-17T14:34:38.377Z,63.20
2019-05-17T14:37:10.393Z,63.20
2019-05-17T14:39:42.917Z,63.20
2019-05-17T14:42:15.654Z,63.20
2019-05-17T14:44:46.976Z,63.00
2019-05-17T14:47:19.664Z,63.20
2019-05-17T14:49:55.414Z,63.00
2019-05-17T14:52:31.247Z,63.10
2019-05-17T14:55:02.816Z,63.10
2019-05-17T14:57:33.844Z,63.20
2019-05-17T15:00:05.320Z,63.20
2019-05-17T15:02:36.514Z,63.20
2019-05-17T15:05:08.437Z,63.20
2019-05-17T15:07:39.314Z,63.30
2019-05-17T15:10:12.054Z,63.30
2019-05-17T15:12:42.942Z,63.30
2019-05-17T15:15:13.753Z,63.30
2019-05-17T15:17:44.637Z,63.40
2019-05-17T15:20:15.683Z,63.40
2019-05-17T15:22:46.617Z,63.60
2019-05-17T15:25:17.634Z,63.50
2019-05-17T15:27:48.370Z,63.60
2019-05-17T15:30:19.289Z,63.70
2019-05-17T15:32:50.259Z,63.70
2019-05-17T15:35:21.236Z,63.70
2019-05-17T15:37:52.048Z,63.70
2019-05-17T15:40:22.820Z,63.70
2019-05-17T15:42:53.830Z,63.70
2019-05-17T15:45:24.850Z,63.70
2019-05-17T15:47:56.213Z,63.80
2019-05-17T15:50:27.217Z,63.80
2019-05-17T15:52:58.103Z,64.00
2019-05-17T15:55:29.080Z,64.10
2019-05-17T15:57:59.975Z,64.00
2019-05-17T16:00:30.761Z,64.10
2019-05-17T16:03:01.797Z,64.20
2019-05-17T16:05:32.678Z,64.30
2019-05-17T16:08:03.723Z,64.30
2019-05-17T16:10:34.687Z,64.40
2019-05-17T16:13:06.214Z,64.50
2019-05-17T16:15:37.353Z,64.60
2019-05-17T16:18:08.515Z,64.70
2019-05-17T16:20:39.530Z,64.70
2019-05-17T16:23:10.436Z,64.80
2019-05-17T16:25:41.325Z,64.90
2019-05-17T16:28:12.335Z,65.00
2019-05-17T16:30:43.527Z,65.00
2019-05-17T16:33:14.533Z,65.10
2019-05-17T16:35:45.484Z,65.30
2019-05-17T16:38:16.415Z,65.60
2019-05-17T16:40:47.272Z,66.00
2019-05-17T16:43:18.793Z,66.10
2019-05-17T16:45:49.836Z,66.40
2019-05-17T16:48:21.082Z,66.60
2019-05-17T16:50:51.957Z,66.80
2019-05-17T16:53:22.996Z,67.00
2019-05-17T16:55:53.937Z,67.10
2019-05-17T16:58:24.831Z,67.20
2019-05-17T17:00:55.731Z,67.30
2019-05-17T17:03:34.829Z,67.30
2019-05-17T17:05:59.082Z,67.40
2019-05-17T17:08:29.887Z,67.40
2019-05-17T17:11:00.805Z,67.30
2019-05-17T17:13:33.381Z,67.30
2019-05-17T17:16:04.135Z,67.30
2019-05-17T17:18:35.143Z,67.30
2019-05-17T17:21:06.175Z,67.50
2019-05-17T17:23:37.196Z,67.40
2019-05-17T17:26:08.223Z,67.40
2019-05-17T17:28:39.099Z,67.40
2019-05-17T17:31:12.089Z,67.30
2019-05-17T17:33:42.989Z,67.40
2019-05-17T17:36:14.012Z,67.40
2019-05-17T17:38:44.995Z,67.50
2019-05-17T17:41:16.016Z,67.50
2019-05-17T17:43:58.033Z,67.50
2019-05-17T17:46:19.217Z,67.70
2019-05-17T17:48:50.306Z,67.70
2019-05-17T17:51:21.329Z,67.80
2019-05-17T17:53:52.463Z,67.90
2019-05-17T17:56:23.393Z,67.80
2019-05-17T17:58:55.044Z,68.00
2019-05-17T18:01:26.143Z,68.10
2019-05-17T18:03:57.146Z,68.20
2019-05-17T18:06:28.410Z,68.50
2019-05-17T18:08:59.548Z,68.30
2019-05-17T18:11:30.251Z,68.30
2019-05-17T18:14:12.432Z,68.40
2019-05-17T18:16:33.542Z,68.40
2019-05-17T18:19:04.992Z,68.40
2019-05-17T18:21:35.957Z,68.60
2019-05-17T18:24:06.956Z,68.80
2019-05-17T18:26:38.085Z,68.80
2019-05-17T18:29:09.153Z,68.80
2019-05-17T18:31:40.235Z,69.00
2019-05-17T18:34:11.066Z,68.90
2019-05-17T18:36:41.979Z,69.10
2019-05-17T18:39:13.220Z,69.20
2019-05-17T18:41:44.119Z,69.30
2019-05-17T18:44:27.219Z,69.40
2019-05-17T18:46:46.308Z,69.50
2019-05-17T18:49:17.303Z,70.10
2019-05-17T18:51:48.195Z,69.80
2019-05-17T18:54:19.370Z,69.80
2019-05-17T18:56:50.412Z,69.70
2019-05-17T18:59:21.323Z,69.80
2019-05-17T19:01:52.482Z,69.80
2019-05-17T19:04:23.339Z,69.80
2019-05-17T19:06:54.112Z,69.80
2019-05-17T19:09:25.148Z,70.00
2019-05-17T19:11:56.120Z,70.00
2019-05-17T19:14:26.962Z,70.10
2019-05-17T19:17:01.081Z,70.20
2019-05-17T19:19:32.434Z,70.40
2019-05-17T19:22:03.313Z,70.60
2019-05-17T19:24:34.322Z,70.50
2019-05-17T19:27:07.256Z,70.60
2019-05-17T19:29:38.307Z,70.60
2019-05-17T19:32:09.233Z,70.70
2019-05-17T19:34:40.233Z,70.80
2019-05-17T19:37:11.844Z,70.80
